sensor_id;sensor_type;location;lat;lon;timestamp;P1;durP1;ratioP1;P2;durP2;ratioP2
65831;SDS011;52593;42.648;23.332;2022-07-18T00:02:17;6.07;;;2.00;;
65831;SDS011;52593;42.648;23.332;2022-07-18T00:04:43;5.17;;;2.33;;
65831;SDS011;52593;42.648;23.332;2022-07-18T00:07:09;6.75;;;2.17;;
65831;SDS011;52593;42.648;23.332;2022-07-18T00:09:36;4.82;;;2.20;;
65831;SDS011;52593;42.648;23.332;2022-07-18T00:12:03;6.45;;;1.80;;
65831;SDS011;52593;42.648;23.332;2022-07-18T00:14:29;6.30;;;2.00;;
65831;SDS011;52593;42.648;23.332;2022-07-18T00:16:55;5.27;;;2.03;;
65831;SDS011;52593;42.648;23.332;2022-07-18T00:19:20;5.53;;;1.97;;
65831;SDS011;52593;42.648;23.332;2022-07-18T00:21:46;5.50;;;1.50;;
65831;SDS011;52593;42.648;23.332;2022-07-18T00:24:11;5.70;;;2.00;;
65831;SDS011;52593;42.648;23.332;2022-07-18T00:26:37;4.57;;;1.65;;
65831;SDS011;52593;42.648;23.332;2022-07-18T00:29:02;6.93;;;2.57;;
65831;SDS011;52593;42.648;23.332;2022-07-18T00:31:28;5.22;;;1.77;;
65831;SDS011;52593;42.648;23.332;2022-07-18T00:33:53;4.93;;;2.00;;
65831;SDS011;52593;42.648;23.332;2022-07-18T00:36:19;5.10;;;1.60;;
65831;SDS011;52593;42.648;23.332;2022-07-18T00:38:44;5.83;;;2.03;;
65831;SDS011;52593;42.648;23.332;2022-07-18T00:41:13;5.85;;;2.00;;
65831;SDS011;52593;42.648;23.332;2022-07-18T00:43:39;7.10;;;1.90;;
65831;SDS011;52593;42.648;23.332;2022-07-18T00:46:05;4.28;;;1.90;;
65831;SDS011;52593;42.648;23.332;2022-07-18T00:48:30;4.27;;;1.70;;
65831;SDS011;52593;42.648;23.332;2022-07-18T00:50:55;4.63;;;1.80;;
65831;SDS011;52593;42.648;23.332;2022-07-18T00:53:21;4.83;;;1.87;;
65831;SDS011;52593;42.648;23.332;2022-07-18T00:55:49;4.90;;;1.90;;
65831;SDS011;52593;42.648;23.332;2022-07-18T00:58:14;4.82;;;1.70;;
65831;SDS011;52593;42.648;23.332;2022-07-18T01:00:41;3.83;;;1.53;;
65831;SDS011;52593;42.648;23.332;2022-07-18T01:03:25;4.63;;;1.70;;
65831;SDS011;52593;42.648;23.332;2022-07-18T01:05:51;6.72;;;1.70;;
65831;SDS011;52593;42.648;23.332;2022-07-18T01:08:16;4.47;;;1.70;;
65831;SDS011;52593;42.648;23.332;2022-07-18T01:10:42;6.97;;;1.80;;
65831;SDS011;52593;42.648;23.332;2022-07-18T01:13:08;4.80;;;1.57;;
65831;SDS011;52593;42.648;23.332;2022-07-18T01:15:34;4.53;;;1.65;;
65831;SDS011;52593;42.648;23.332;2022-07-18T01:18:01;5.15;;;1.80;;
65831;SDS011;52593;42.648;23.332;2022-07-18T01:20:27;5.37;;;1.87;;
65831;SDS011;52593;42.648;23.332;2022-07-18T01:22:53;4.20;;;1.42;;
65831;SDS011;52593;42.648;23.332;2022-07-18T01:25:19;4.63;;;1.90;;
65831;SDS011;52593;42.648;23.332;2022-07-18T01:27:44;4.30;;;1.80;;
65831;SDS011;52593;42.648;23.332;2022-07-18T01:30:10;4.70;;;1.73;;
65831;SDS011;52593;42.648;23.332;2022-07-18T01:32:36;5.40;;;1.50;;
65831;SDS011;52593;42.648;23.332;2022-07-18T01:35:01;6.00;;;1.70;;
65831;SDS011;52593;42.648;23.332;2022-07-18T01:37:27;5.88;;;1.50;;
65831;SDS011;52593;42.648;23.332;2022-07-18T01:39:52;4.03;;;1.70;;
65831;SDS011;52593;42.648;23.332;2022-07-18T01:42:18;4.80;;;1.40;;
65831;SDS011;52593;42.648;23.332;2022-07-18T01:44:43;4.93;;;1.90;;
65831;SDS011;52593;42.648;23.332;2022-07-18T01:47:10;6.18;;;1.90;;
65831;SDS011;52593;42.648;23.332;2022-07-18T01:49:36;4.13;;;1.48;;
65831;SDS011;52593;42.648;23.332;2022-07-18T01:52:02;6.20;;;1.40;;
65831;SDS011;52593;42.648;23.332;2022-07-18T01:54:29;5.50;;;1.80;;
65831;SDS011;52593;42.648;23.332;2022-07-18T01:56:56;5.45;;;1.70;;
65831;SDS011;52593;42.648;23.332;2022-07-18T01:59:23;5.60;;;1.60;;
65831;SDS011;52593;42.648;23.332;2022-07-18T02:01:49;4.70;;;1.50;;
65831;SDS011;52593;42.648;23.332;2022-07-18T02:04:15;4.00;;;1.10;;
65831;SDS011;52593;42.648;23.332;2022-07-18T02:06:40;4.70;;;1.30;;
65831;SDS011;52593;42.648;23.332;2022-07-18T02:09:06;4.50;;;1.20;;
65831;SDS011;52593;42.648;23.332;2022-07-18T02:11:33;3.70;;;1.23;;
65831;SDS011;52593;42.648;23.332;2022-07-18T02:13:59;4.27;;;1.23;;
65831;SDS011;52593;42.648;23.332;2022-07-18T02:16:24;5.50;;;1.30;;
65831;SDS011;52593;42.648;23.332;2022-07-18T02:18:50;3.87;;;1.47;;
65831;SDS011;52593;42.648;23.332;2022-07-18T02:21:15;4.47;;;1.33;;
65831;SDS011;52593;42.648;23.332;2022-07-18T02:23:41;4.47;;;1.33;;
65831;SDS011;52593;42.648;23.332;2022-07-18T02:26:08;6.82;;;1.50;;
65831;SDS011;52593;42.648;23.332;2022-07-18T02:28:34;3.97;;;1.42;;
65831;SDS011;52593;42.648;23.332;2022-07-18T02:31:00;3.70;;;1.20;;
65831;SDS011;52593;42.648;23.332;2022-07-18T02:33:25;5.20;;;1.58;;
65831;SDS011;52593;42.648;23.332;2022-07-18T02:35:51;5.50;;;1.20;;
65831;SDS011;52593;42.648;23.332;2022-07-18T02:38:17;4.40;;;1.20;;
65831;SDS011;52593;42.648;23.332;2022-07-18T02:40:42;4.90;;;1.30;;
65831;SDS011;52593;42.648;23.332;2022-07-18T02:43:08;4.37;;;1.27;;
65831;SDS011;52593;42.648;23.332;2022-07-18T02:45:34;3.42;;;1.10;;
65831;SDS011;52593;42.648;23.332;2022-07-18T02:47:59;4.83;;;1.20;;
65831;SDS011;52593;42.648;23.332;2022-07-18T02:50:25;4.00;;;1.20;;
65831;SDS011;52593;42.648;23.332;2022-07-18T02:52:50;5.37;;;1.20;;
65831;SDS011;52593;42.648;23.332;2022-07-18T02:55:16;5.10;;;1.10;;
65831;SDS011;52593;42.648;23.332;2022-07-18T02:57:41;3.67;;;1.10;;
65831;SDS011;52593;42.648;23.332;2022-07-18T03:00:08;3.53;;;1.10;;
65831;SDS011;52593;42.648;23.332;2022-07-18T03:02:36;3.67;;;0.90;;
65831;SDS011;52593;42.648;23.332;2022-07-18T03:05:02;4.23;;;1.00;;
65831;SDS011;52593;42.648;23.332;2022-07-18T03:07:28;8.10;;;1.20;;
65831;SDS011;52593;42.648;23.332;2022-07-18T03:09:53;6.03;;;1.20;;
65831;SDS011;52593;42.648;23.332;2022-07-18T03:12:19;3.70;;;1.10;;
65831;SDS011;52593;42.648;23.332;2022-07-18T03:14:44;4.67;;;1.30;;
65831;SDS011;52593;42.648;23.332;2022-07-18T03:17:10;4.63;;;1.50;;
65831;SDS011;52593;42.648;23.332;2022-07-18T03:19:35;3.63;;;0.87;;
65831;SDS011;52593;42.648;23.332;2022-07-18T03:22:02;4.60;;;1.05;;
65831;SDS011;52593;42.648;23.332;2022-07-18T03:24:28;5.22;;;1.10;;
65831;SDS011;52593;42.648;23.332;2022-07-18T03:26:54;3.67;;;1.10;;
65831;SDS011;52593;42.648;23.332;2022-07-18T03:29:19;5.03;;;1.00;;
65831;SDS011;52593;42.648;23.332;2022-07-18T03:31:45;5.78;;;0.90;;
65831;SDS011;52593;42.648;23.332;2022-07-18T03:34:10;3.93;;;1.00;;
65831;SDS011;52593;42.648;23.332;2022-07-18T03:36:36;3.43;;;0.70;;
65831;SDS011;52593;42.648;23.332;2022-07-18T03:39:03;5.95;;;1.00;;
65831;SDS011;52593;42.648;23.332;2022-07-18T03:41:29;5.78;;;1.00;;
65831;SDS011;52593;42.648;23.332;2022-07-18T03:43:54;4.23;;;1.33;;
65831;SDS011;52593;42.648;23.332;2022-07-18T03:46:20;6.63;;;0.97;;
65831;SDS011;52593;42.648;23.332;2022-07-18T03:48:45;8.73;;;1.20;;
65831;SDS011;52593;42.648;23.332;2022-07-18T03:51:11;3.00;;;0.80;;
65831;SDS011;52593;42.648;23.332;2022-07-18T03:53:36;3.43;;;1.17;;
65831;SDS011;52593;42.648;23.332;2022-07-18T03:56:02;5.18;;;1.02;;
65831;SDS011;52593;42.648;23.332;2022-07-18T03:58:27;3.30;;;0.90;;
65831;SDS011;52593;42.648;23.332;2022-07-18T04:00:53;4.33;;;1.00;;
65831;SDS011;52593;42.648;23.332;2022-07-18T04:03:19;3.15;;;0.90;;
65831;SDS011;52593;42.648;23.332;2022-07-18T04:05:44;3.20;;;0.90;;
65831;SDS011;52593;42.648;23.332;2022-07-18T04:08:10;3.63;;;0.97;;
65831;SDS011;52593;42.648;23.332;2022-07-18T04:10:35;3.90;;;1.10;;
65831;SDS011;52593;42.648;23.332;2022-07-18T04:13:04;5.28;;;0.95;;
65831;SDS011;52593;42.648;23.332;2022-07-18T04:15:30;4.72;;;1.10;;
65831;SDS011;52593;42.648;23.332;2022-07-18T04:17:56;3.80;;;0.93;;
65831;SDS011;52593;42.648;23.332;2022-07-18T04:20:21;6.43;;;1.43;;
65831;SDS011;52593;42.648;23.332;2022-07-18T04:22:49;5.40;;;1.15;;
65831;SDS011;52593;42.648;23.332;2022-07-18T04:25:20;5.53;;;1.40;;
65831;SDS011;52593;42.648;23.332;2022-07-18T04:27:48;4.60;;;1.33;;
65831;SDS011;52593;42.648;23.332;2022-07-18T04:30:16;5.28;;;1.30;;
65831;SDS011;52593;42.648;23.332;2022-07-18T04:32:43;6.80;;;1.50;;
65831;SDS011;52593;42.648;23.332;2022-07-18T04:35:09;5.57;;;1.20;;
65831;SDS011;52593;42.648;23.332;2022-07-18T04:37:36;3.97;;;1.38;;
65831;SDS011;52593;42.648;23.332;2022-07-18T04:40:02;7.55;;;1.48;;
65831;SDS011;52593;42.648;23.332;2022-07-18T04:42:28;7.28;;;1.50;;
65831;SDS011;52593;42.648;23.332;2022-07-18T04:44:55;4.90;;;1.20;;
65831;SDS011;52593;42.648;23.332;2022-07-18T04:47:21;3.47;;;1.20;;
65831;SDS011;52593;42.648;23.332;2022-07-18T04:49:46;4.83;;;1.20;;
65831;SDS011;52593;42.648;23.332;2022-07-18T04:52:11;6.80;;;1.20;;
65831;SDS011;52593;42.648;23.332;2022-07-18T04:54:37;4.57;;;1.30;;
65831;SDS011;52593;42.648;23.332;2022-07-18T04:57:02;10.18;;;1.25;;
65831;SDS011;52593;42.648;23.332;2022-07-18T04:59:27;4.83;;;1.17;;
65831;SDS011;52593;42.648;23.332;2022-07-18T05:01:53;4.03;;;1.10;;
65831;SDS011;52593;42.648;23.332;2022-07-18T05:04:18;3.53;;;1.17;;
65831;SDS011;52593;42.648;23.332;2022-07-18T05:06:44;5.63;;;1.30;;
65831;SDS011;52593;42.648;23.332;2022-07-18T05:09:09;4.40;;;1.27;;
65831;SDS011;52593;42.648;23.332;2022-07-18T05:11:34;4.13;;;1.20;;
65831;SDS011;52593;42.648;23.332;2022-07-18T05:14:00;4.30;;;1.30;;
65831;SDS011;52593;42.648;23.332;2022-07-18T05:16:26;4.38;;;1.40;;
65831;SDS011;52593;42.648;23.332;2022-07-18T05:18:51;3.97;;;1.43;;
65831;SDS011;52593;42.648;23.332;2022-07-18T05:21:17;6.15;;;1.17;;
65831;SDS011;52593;42.648;23.332;2022-07-18T05:23:42;4.60;;;2.00;;
65831;SDS011;52593;42.648;23.332;2022-07-18T05:26:08;3.47;;;1.20;;
65831;SDS011;52593;42.648;23.332;2022-07-18T05:28:33;6.10;;;1.30;;
65831;SDS011;52593;42.648;23.332;2022-07-18T05:30:58;4.38;;;1.30;;
65831;SDS011;52593;42.648;23.332;2022-07-18T05:33:25;6.00;;;1.20;;
65831;SDS011;52593;42.648;23.332;2022-07-18T05:35:50;4.32;;;1.20;;
65831;SDS011;52593;42.648;23.332;2022-07-18T05:38:16;5.53;;;1.13;;
65831;SDS011;52593;42.648;23.332;2022-07-18T05:40:41;6.70;;;1.30;;
65831;SDS011;52593;42.648;23.332;2022-07-18T05:43:06;4.93;;;1.23;;
65831;SDS011;52593;42.648;23.332;2022-07-18T05:45:32;4.63;;;1.27;;
65831;SDS011;52593;42.648;23.332;2022-07-18T05:47:58;4.07;;;1.20;;
65831;SDS011;52593;42.648;23.332;2022-07-18T05:50:23;4.40;;;1.17;;
65831;SDS011;52593;42.648;23.332;2022-07-18T05:52:50;4.75;;;1.30;;
65831;SDS011;52593;42.648;23.332;2022-07-18T05:55:16;3.90;;;1.10;;
65831;SDS011;52593;42.648;23.332;2022-07-18T05:57:41;5.77;;;1.40;;
65831;SDS011;52593;42.648;23.332;2022-07-18T06:00:08;3.93;;;1.23;;
65831;SDS011;52593;42.648;23.332;2022-07-18T06:02:34;7.32;;;1.35;;
65831;SDS011;52593;42.648;23.332;2022-07-18T06:05:00;4.38;;;1.27;;
65831;SDS011;52593;42.648;23.332;2022-07-18T06:07:26;6.33;;;1.20;;
65831;SDS011;52593;42.648;23.332;2022-07-18T06:09:51;6.70;;;1.47;;
65831;SDS011;52593;42.648;23.332;2022-07-18T06:12:16;4.57;;;1.30;;
65831;SDS011;52593;42.648;23.332;2022-07-18T06:14:42;6.53;;;1.50;;
65831;SDS011;52593;42.648;23.332;2022-07-18T06:17:08;3.78;;;1.10;;
65831;SDS011;52593;42.648;23.332;2022-07-18T06:19:33;6.57;;;1.30;;
65831;SDS011;52593;42.648;23.332;2022-07-18T06:21:59;6.80;;;1.40;;
65831;SDS011;52593;42.648;23.332;2022-07-18T06:24:24;24.05;;;4.85;;
65831;SDS011;52593;42.648;23.332;2022-07-18T06:26:50;21.67;;;4.73;;
65831;SDS011;52593;42.648;23.332;2022-07-18T06:29:16;6.47;;;1.10;;
65831;SDS011;52593;42.648;23.332;2022-07-18T06:31:42;8.13;;;1.33;;
65831;SDS011;52593;42.648;23.332;2022-07-18T06:34:07;12.43;;;1.53;;
65831;SDS011;52593;42.648;23.332;2022-07-18T06:36:32;18.10;;;1.87;;
65831;SDS011;52593;42.648;23.332;2022-07-18T06:38:58;7.82;;;1.30;;
65831;SDS011;52593;42.648;23.332;2022-07-18T06:41:24;12.10;;;2.37;;
65831;SDS011;52593;42.648;23.332;2022-07-18T06:43:49;10.60;;;2.00;;
65831;SDS011;52593;42.648;23.332;2022-07-18T06:46:14;14.40;;;2.85;;
65831;SDS011;52593;42.648;23.332;2022-07-18T06:48:40;5.17;;;1.10;;
65831;SDS011;52593;42.648;23.332;2022-07-18T06:51:05;3.83;;;1.37;;
65831;SDS011;52593;42.648;23.332;2022-07-18T06:53:33;4.18;;;1.30;;
65831;SDS011;52593;42.648;23.332;2022-07-18T06:55:59;5.47;;;1.10;;
65831;SDS011;52593;42.648;23.332;2022-07-18T06:58:27;4.80;;;1.10;;
65831;SDS011;52593;42.648;23.332;2022-07-18T07:00:55;4.27;;;1.20;;
65831;SDS011;52593;42.648;23.332;2022-07-18T07:03:21;6.72;;;1.20;;
65831;SDS011;52593;42.648;23.332;2022-07-18T07:05:46;4.73;;;1.00;;
65831;SDS011;52593;42.648;23.332;2022-07-18T07:08:11;7.53;;;1.40;;
65831;SDS011;52593;42.648;23.332;2022-07-18T07:10:38;6.75;;;1.77;;
65831;SDS011;52593;42.648;23.332;2022-07-18T07:13:03;4.90;;;1.03;;
65831;SDS011;52593;42.648;23.332;2022-07-18T07:15:29;4.57;;;1.00;;
65831;SDS011;52593;42.648;23.332;2022-07-18T07:17:54;4.50;;;1.20;;
65831;SDS011;52593;42.648;23.332;2022-07-18T07:20:20;3.93;;;0.90;;
65831;SDS011;52593;42.648;23.332;2022-07-18T07:25:11;6.40;;;1.20;;
65831;SDS011;52593;42.648;23.332;2022-07-18T07:27:38;6.03;;;1.63;;
65831;SDS011;52593;42.648;23.332;2022-07-18T07:30:04;4.27;;;1.13;;
65831;SDS011;52593;42.648;23.332;2022-07-18T07:32:33;7.13;;;0.98;;
65831;SDS011;52593;42.648;23.332;2022-07-18T07:35:00;5.47;;;0.93;;
65831;SDS011;52593;42.648;23.332;2022-07-18T07:37:25;4.00;;;1.17;;
65831;SDS011;52593;42.648;23.332;2022-07-18T07:39:51;4.97;;;1.20;;
65831;SDS011;52593;42.648;23.332;2022-07-18T07:42:16;7.20;;;1.20;;
65831;SDS011;52593;42.648;23.332;2022-07-18T07:44:41;7.33;;;1.40;;
65831;SDS011;52593;42.648;23.332;2022-07-18T07:47:07;5.20;;;1.30;;
65831;SDS011;52593;42.648;23.332;2022-07-18T07:49:32;4.30;;;1.20;;
65831;SDS011;52593;42.648;23.332;2022-07-18T07:51:59;4.53;;;1.20;;
65831;SDS011;52593;42.648;23.332;2022-07-18T07:54:25;11.90;;;1.80;;
65831;SDS011;52593;42.648;23.332;2022-07-18T07:56:51;4.50;;;1.20;;
65831;SDS011;52593;42.648;23.332;2022-07-18T07:59:16;7.80;;;1.50;;
65831;SDS011;52593;42.648;23.332;2022-07-18T08:01:42;4.97;;;1.40;;
65831;SDS011;52593;42.648;23.332;2022-07-18T08:04:07;5.53;;;1.10;;
65831;SDS011;52593;42.648;23.332;2022-07-18T08:06:33;4.18;;;1.50;;
65831;SDS011;52593;42.648;23.332;2022-07-18T08:08:58;6.63;;;1.27;;
65831;SDS011;52593;42.648;23.332;2022-07-18T08:11:24;5.40;;;1.27;;
65831;SDS011;52593;42.648;23.332;2022-07-18T08:13:50;4.23;;;1.20;;
65831;SDS011;52593;42.648;23.332;2022-07-18T08:16:16;5.35;;;1.25;;
65831;SDS011;52593;42.648;23.332;2022-07-18T08:18:41;5.13;;;1.10;;
65831;SDS011;52593;42.648;23.332;2022-07-18T08:21:07;6.20;;;1.30;;
65831;SDS011;52593;42.648;23.332;2022-07-18T08:23:32;4.43;;;1.10;;
65831;SDS011;52593;42.648;23.332;2022-07-18T08:25:57;3.70;;;1.20;;
65831;SDS011;52593;42.648;23.332;2022-07-18T08:28:23;4.57;;;1.10;;
65831;SDS011;52593;42.648;23.332;2022-07-18T08:30:49;6.97;;;1.10;;
65831;SDS011;52593;42.648;23.332;2022-07-18T08:33:15;4.90;;;1.47;;
65831;SDS011;52593;42.648;23.332;2022-07-18T08:35:41;4.83;;;1.40;;
65831;SDS011;52593;42.648;23.332;2022-07-18T08:38:06;5.38;;;1.27;;
65831;SDS011;52593;42.648;23.332;2022-07-18T08:40:32;9.00;;;1.50;;
65831;SDS011;52593;42.648;23.332;2022-07-18T08:42:57;4.78;;;1.27;;
65831;SDS011;52593;42.648;23.332;2022-07-18T08:45:24;5.00;;;1.20;;
65831;SDS011;52593;42.648;23.332;2022-07-18T08:47:50;5.60;;;1.30;;
65831;SDS011;52593;42.648;23.332;2022-07-18T08:50:17;5.80;;;1.23;;
65831;SDS011;52593;42.648;23.332;2022-07-18T08:52:43;6.32;;;1.40;;
65831;SDS011;52593;42.648;23.332;2022-07-18T08:55:09;3.97;;;1.10;;
65831;SDS011;52593;42.648;23.332;2022-07-18T08:57:35;7.70;;;1.10;;
65831;SDS011;52593;42.648;23.332;2022-07-18T09:00:05;5.97;;;1.40;;
65831;SDS011;52593;42.648;23.332;2022-07-18T09:02:32;3.70;;;1.20;;
65831;SDS011;52593;42.648;23.332;2022-07-18T09:04:57;4.00;;;1.20;;
65831;SDS011;52593;42.648;23.332;2022-07-18T09:07:26;5.60;;;1.10;;
65831;SDS011;52593;42.648;23.332;2022-07-18T09:09:55;4.25;;;1.48;;
65831;SDS011;52593;42.648;23.332;2022-07-18T09:12:25;4.80;;;1.70;;
65831;SDS011;52593;42.648;23.332;2022-07-18T09:14:56;5.50;;;1.10;;
65831;SDS011;52593;42.648;23.332;2022-07-18T09:17:26;5.05;;;1.20;;
65831;SDS011;52593;42.648;23.332;2022-07-18T09:22:26;4.35;;;1.27;;
65831;SDS011;52593;42.648;23.332;2022-07-18T09:24:58;4.43;;;1.38;;
65831;SDS011;52593;42.648;23.332;2022-07-18T09:27:31;7.80;;;1.37;;
65831;SDS011;52593;42.648;23.332;2022-07-18T09:35:29;3.83;;;1.30;;
65831;SDS011;52593;42.648;23.332;2022-07-18T09:40:27;4.43;;;1.50;;
65831;SDS011;52593;42.648;23.332;2022-07-18T09:42:58;4.82;;;1.35;;
65831;SDS011;52593;42.648;23.332;2022-07-18T09:45:28;4.10;;;1.37;;
65831;SDS011;52593;42.648;23.332;2022-07-18T09:47:59;4.43;;;1.20;;
65831;SDS011;52593;42.648;23.332;2022-07-18T09:52:56;4.28;;;1.48;;
65831;SDS011;52593;42.648;23.332;2022-07-18T09:55:30;6.03;;;1.40;;
65831;SDS011;52593;42.648;23.332;2022-07-18T09:57:56;5.67;;;1.80;;
65831;SDS011;52593;42.648;23.332;2022-07-18T10:00:24;4.90;;;1.67;;
65831;SDS011;52593;42.648;23.332;2022-07-18T10:02:51;6.60;;;1.70;;
65831;SDS011;52593;42.648;23.332;2022-07-18T10:05:17;5.27;;;1.90;;
65831;SDS011;52593;42.648;23.332;2022-07-18T10:07:42;5.25;;;1.70;;
65831;SDS011;52593;42.648;23.332;2022-07-18T10:10:08;4.13;;;1.60;;
65831;SDS011;52593;42.648;23.332;2022-07-18T10:12:34;5.30;;;1.80;;
65831;SDS011;52593;42.648;23.332;2022-07-18T10:14:59;4.50;;;1.87;;
65831;SDS011;52593;42.648;23.332;2022-07-18T10:17:25;7.13;;;1.80;;
65831;SDS011;52593;42.648;23.332;2022-07-18T10:19:50;5.43;;;1.90;;
65831;SDS011;52593;42.648;23.332;2022-07-18T10:22:16;4.33;;;1.90;;
65831;SDS011;52593;42.648;23.332;2022-07-18T10:24:42;4.60;;;1.83;;
65831;SDS011;52593;42.648;23.332;2022-07-18T10:27:18;9.43;;;2.65;;
65831;SDS011;52593;42.648;23.332;2022-07-18T10:32:34;7.00;;;2.37;;
65831;SDS011;52593;42.648;23.332;2022-07-18T10:34:59;6.72;;;1.85;;
65831;SDS011;52593;42.648;23.332;2022-07-18T10:37:25;4.93;;;1.70;;
65831;SDS011;52593;42.648;23.332;2022-07-18T10:39:51;6.57;;;1.87;;
65831;SDS011;52593;42.648;23.332;2022-07-18T10:42:18;8.35;;;1.90;;
65831;SDS011;52593;42.648;23.332;2022-07-18T10:44:45;7.40;;;1.70;;
65831;SDS011;52593;42.648;23.332;2022-07-18T10:47:15;6.07;;;2.15;;
65831;SDS011;52593;42.648;23.332;2022-07-18T10:55:33;6.33;;;2.13;;
65831;SDS011;52593;42.648;23.332;2022-07-18T11:00:15;4.38;;;1.85;;
65831;SDS011;52593;42.648;23.332;2022-07-18T11:11:07;7.93;;;1.92;;
65831;SDS011;52593;42.648;23.332;2022-07-18T11:21:19;6.73;;;2.23;;
65831;SDS011;52593;42.648;23.332;2022-07-18T11:23:48;9.18;;;2.40;;
65831;SDS011;52593;42.648;23.332;2022-07-18T11:26:16;5.95;;;2.35;;
65831;SDS011;52593;42.648;23.332;2022-07-18T11:28:43;5.57;;;2.15;;
65831;SDS011;52593;42.648;23.332;2022-07-18T11:31:11;5.15;;;2.50;;
65831;SDS011;52593;42.648;23.332;2022-07-18T11:33:47;5.80;;;2.27;;
65831;SDS011;52593;42.648;23.332;2022-07-18T11:36:15;5.40;;;2.25;;
65831;SDS011;52593;42.648;23.332;2022-07-18T11:38:49;6.20;;;2.05;;
65831;SDS011;52593;42.648;23.332;2022-07-18T11:41:16;6.47;;;1.85;;
65831;SDS011;52593;42.648;23.332;2022-07-18T11:43:43;4.38;;;2.28;;
65831;SDS011;52593;42.648;23.332;2022-07-18T11:46:10;5.20;;;2.00;;
65831;SDS011;52593;42.648;23.332;2022-07-18T11:48:38;7.57;;;2.30;;
65831;SDS011;52593;42.648;23.332;2022-07-18T11:51:10;8.82;;;2.40;;
65831;SDS011;52593;42.648;23.332;2022-07-18T11:53:44;4.97;;;1.95;;
65831;SDS011;52593;42.648;23.332;2022-07-18T11:56:09;5.63;;;2.28;;
65831;SDS011;52593;42.648;23.332;2022-07-18T11:58:38;4.70;;;1.90;;
65831;SDS011;52593;42.648;23.332;2022-07-18T12:01:05;7.68;;;2.22;;
65831;SDS011;52593;42.648;23.332;2022-07-18T12:03:33;4.57;;;2.10;;
65831;SDS011;52593;42.648;23.332;2022-07-18T12:06:08;6.50;;;2.17;;
65831;SDS011;52593;42.648;23.332;2022-07-18T12:08:36;6.35;;;2.00;;
65831;SDS011;52593;42.648;23.332;2022-07-18T12:13:54;3.88;;;1.63;;
65831;SDS011;52593;42.648;23.332;2022-07-18T12:16:28;7.13;;;2.45;;
65831;SDS011;52593;42.648;23.332;2022-07-18T12:19:07;5.47;;;2.07;;
65831;SDS011;52593;42.648;23.332;2022-07-18T12:22:20;5.43;;;2.10;;
65831;SDS011;52593;42.648;23.332;2022-07-18T12:27:11;6.55;;;2.20;;
65831;SDS011;52593;42.648;23.332;2022-07-18T12:40:22;6.57;;;2.08;;
65831;SDS011;52593;42.648;23.332;2022-07-18T12:42:49;6.53;;;2.20;;
65831;SDS011;52593;42.648;23.332;2022-07-18T12:45:15;6.80;;;2.33;;
65831;SDS011;52593;42.648;23.332;2022-07-18T12:47:41;6.05;;;2.13;;
65831;SDS011;52593;42.648;23.332;2022-07-18T12:50:07;6.47;;;2.30;;
65831;SDS011;52593;42.648;23.332;2022-07-18T12:52:33;4.47;;;2.20;;
65831;SDS011;52593;42.648;23.332;2022-07-18T12:54:58;5.30;;;2.17;;
65831;SDS011;52593;42.648;23.332;2022-07-18T12:57:24;7.30;;;2.97;;
65831;SDS011;52593;42.648;23.332;2022-07-18T12:59:50;5.00;;;2.40;;
65831;SDS011;52593;42.648;23.332;2022-07-18T13:02:16;8.18;;;2.67;;
65831;SDS011;52593;42.648;23.332;2022-07-18T13:04:43;7.03;;;2.50;;
65831;SDS011;52593;42.648;23.332;2022-07-18T13:07:09;5.80;;;2.70;;
65831;SDS011;52593;42.648;23.332;2022-07-18T13:09:35;6.97;;;2.87;;
65831;SDS011;52593;42.648;23.332;2022-07-18T13:12:00;6.25;;;2.35;;
65831;SDS011;52593;42.648;23.332;2022-07-18T13:14:26;7.27;;;2.87;;
65831;SDS011;52593;42.648;23.332;2022-07-18T13:16:51;5.32;;;2.50;;
65831;SDS011;52593;42.648;23.332;2022-07-18T13:19:18;6.27;;;2.53;;
65831;SDS011;52593;42.648;23.332;2022-07-18T13:21:44;7.45;;;2.60;;
65831;SDS011;52593;42.648;23.332;2022-07-18T13:24:11;6.82;;;2.85;;
65831;SDS011;52593;42.648;23.332;2022-07-18T13:26:37;5.95;;;2.63;;
65831;SDS011;52593;42.648;23.332;2022-07-18T13:29:03;5.93;;;2.70;;
65831;SDS011;52593;42.648;23.332;2022-07-18T13:31:29;6.50;;;2.88;;
65831;SDS011;52593;42.648;23.332;2022-07-18T13:33:55;7.00;;;2.42;;
65831;SDS011;52593;42.648;23.332;2022-07-18T13:36:21;5.90;;;2.40;;
65831;SDS011;52593;42.648;23.332;2022-07-18T13:38:47;5.47;;;2.50;;
65831;SDS011;52593;42.648;23.332;2022-07-18T13:41:13;6.10;;;2.60;;
65831;SDS011;52593;42.648;23.332;2022-07-18T13:43:39;6.77;;;2.60;;
65831;SDS011;52593;42.648;23.332;2022-07-18T13:46:06;5.13;;;2.40;;
65831;SDS011;52593;42.648;23.332;2022-07-18T13:48:33;6.65;;;3.10;;
65831;SDS011;52593;42.648;23.332;2022-07-18T13:50:58;5.20;;;2.07;;
65831;SDS011;52593;42.648;23.332;2022-07-18T13:53:24;5.32;;;2.78;;
65831;SDS011;52593;42.648;23.332;2022-07-18T13:55:50;5.23;;;2.43;;
65831;SDS011;52593;42.648;23.332;2022-07-18T13:58:15;5.45;;;2.35;;
65831;SDS011;52593;42.648;23.332;2022-07-18T14:00:41;4.77;;;2.40;;
65831;SDS011;52593;42.648;23.332;2022-07-18T14:03:06;8.43;;;3.03;;
65831;SDS011;52593;42.648;23.332;2022-07-18T14:05:33;8.05;;;3.28;;
65831;SDS011;52593;42.648;23.332;2022-07-18T14:07:58;6.37;;;3.17;;
65831;SDS011;52593;42.648;23.332;2022-07-18T14:10:24;6.43;;;3.00;;
65831;SDS011;52593;42.648;23.332;2022-07-18T14:12:49;7.90;;;2.80;;
65831;SDS011;52593;42.648;23.332;2022-07-18T14:15:15;5.93;;;2.83;;
65831;SDS011;52593;42.648;23.332;2022-07-18T14:17:40;5.93;;;2.80;;
65831;SDS011;52593;42.648;23.332;2022-07-18T14:20:06;6.60;;;2.53;;
65831;SDS011;52593;42.648;23.332;2022-07-18T14:22:33;7.97;;;3.25;;
65831;SDS011;52593;42.648;23.332;2022-07-18T14:24:59;6.00;;;3.00;;
65831;SDS011;52593;42.648;23.332;2022-07-18T14:27:24;5.10;;;2.90;;
65831;SDS011;52593;42.648;23.332;2022-07-18T14:29:50;6.20;;;2.80;;
65831;SDS011;52593;42.648;23.332;2022-07-18T14:32:16;9.68;;;3.20;;
65831;SDS011;52593;42.648;23.332;2022-07-18T14:34:41;6.17;;;2.77;;
65831;SDS011;52593;42.648;23.332;2022-07-18T14:37:06;7.53;;;3.30;;
65831;SDS011;52593;42.648;23.332;2022-07-18T14:39:32;5.57;;;3.20;;
65831;SDS011;52593;42.648;23.332;2022-07-18T14:41:57;6.10;;;3.10;;
65831;SDS011;52593;42.648;23.332;2022-07-18T14:44:22;5.53;;;2.87;;
65831;SDS011;52593;42.648;23.332;2022-07-18T14:46:49;7.63;;;3.00;;
65831;SDS011;52593;42.648;23.332;2022-07-18T14:49:14;5.40;;;2.97;;
65831;SDS011;52593;42.648;23.332;2022-07-18T14:51:40;6.47;;;3.00;;
65831;SDS011;52593;42.648;23.332;2022-07-18T14:54:05;7.43;;;3.03;;
65831;SDS011;52593;42.648;23.332;2022-07-18T14:56:34;5.40;;;2.90;;
65831;SDS011;52593;42.648;23.332;2022-07-18T14:58:59;4.77;;;2.93;;
65831;SDS011;52593;42.648;23.332;2022-07-18T15:01:25;6.33;;;3.03;;
65831;SDS011;52593;42.648;23.332;2022-07-18T15:03:50;7.32;;;3.10;;
65831;SDS011;52593;42.648;23.332;2022-07-18T15:06:15;10.87;;;7.03;;
65831;SDS011;52593;42.648;23.332;2022-07-18T15:08:41;9.27;;;4.37;;
65831;SDS011;52593;42.648;23.332;2022-07-18T15:11:06;8.90;;;3.90;;
65831;SDS011;52593;42.648;23.332;2022-07-18T15:13:32;5.13;;;3.05;;
65831;SDS011;52593;42.648;23.332;2022-07-18T15:15:57;6.47;;;2.93;;
65831;SDS011;52593;42.648;23.332;2022-07-18T15:18:22;6.23;;;3.07;;
65831;SDS011;52593;42.648;23.332;2022-07-18T15:20:48;10.87;;;3.30;;
65831;SDS011;52593;42.648;23.332;2022-07-18T15:23:13;6.67;;;3.10;;
65831;SDS011;52593;42.648;23.332;2022-07-18T15:25:38;10.23;;;3.23;;
65831;SDS011;52593;42.648;23.332;2022-07-18T15:28:04;8.90;;;3.27;;